Terminal Aerodrome Forecast
Issued by NWS San Angelo, TX

Home | Current Version | Previous Version | Text Only | Print | Product List | Glossary On
Versions: 1 2 3 4 5 6 7 8 9 10 11 12 13
912
FTUS44 KSJT 201133
TAFABI
TAF
KABI 201133Z 2012/2112 18012KT P6SM FEW250
     FM201500 19015G22KT P6SM SKC
     FM210100 17012KT P6SM SCT250=

USA.gov is the U.S. government's official web portal to all federal, state and local government web resources and services.